sensor_id;sensor_type;location;lat;lon;timestamp;temperature;humidity
72772;SHT30;60894;42.544;1.516;2023-04-16T00:02:00;5.67;54.81
72772;SHT30;60894;42.544;1.516;2023-04-16T00:04:27;5.56;54.55
72772;SHT30;60894;42.544;1.516;2023-04-16T00:06:54;5.73;54.19
72772;SHT30;60894;42.544;1.516;2023-04-16T00:09:21;5.66;54.88
72772;SHT30;60894;42.544;1.516;2023-04-16T00:11:48;5.66;55.37
72772;SHT30;60894;42.544;1.516;2023-04-16T00:14:17;5.34;55.72
72772;SHT30;60894;42.544;1.516;2023-04-16T00:16:43;5.16;57.35
72772;SHT30;60894;42.544;1.516;2023-04-16T00:19:11;5.21;58.30
72772;SHT30;60894;42.544;1.516;2023-04-16T00:21:38;5.38;58.00
72772;SHT30;60894;42.544;1.516;2023-04-16T00:24:05;5.38;56.24
72772;SHT30;60894;42.544;1.516;2023-04-16T00:26:31;5.39;57.32
72772;SHT30;60894;42.544;1.516;2023-04-16T00:28:59;5.43;58.43
72772;SHT30;60894;42.544;1.516;2023-04-16T00:31:28;5.34;57.48
72772;SHT30;60894;42.544;1.516;2023-04-16T00:33:56;5.04;58.00
72772;SHT30;60894;42.544;1.516;2023-04-16T00:36:23;5.01;58.38
72772;SHT30;60894;42.544;1.516;2023-04-16T00:38:50;5.19;57.87
72772;SHT30;60894;42.544;1.516;2023-04-16T00:41:17;5.05;58.51
72772;SHT30;60894;42.544;1.516;2023-04-16T00:43:44;4.94;59.29
72772;SHT30;60894;42.544;1.516;2023-04-16T00:46:11;5.04;59.21
72772;SHT30;60894;42.544;1.516;2023-04-16T00:48:40;4.87;60.00
72772;SHT30;60894;42.544;1.516;2023-04-16T00:51:08;4.73;59.45
72772;SHT30;60894;42.544;1.516;2023-04-16T00:53:35;4.47;60.49
72772;SHT30;60894;42.544;1.516;2023-04-16T00:56:04;4.68;60.19
72772;SHT30;60894;42.544;1.516;2023-04-16T00:58:31;4.68;61.21
72772;SHT30;60894;42.544;1.516;2023-04-16T01:00:58;4.77;61.34
72772;SHT30;60894;42.544;1.516;2023-04-16T01:03:33;4.71;61.47
72772;SHT30;60894;42.544;1.516;2023-04-16T01:06:05;4.88;62.27
72772;SHT30;60894;42.544;1.516;2023-04-16T01:08:32;4.91;62.10
72772;SHT30;60894;42.544;1.516;2023-04-16T01:10:59;4.85;61.00
72772;SHT30;60894;42.544;1.516;2023-04-16T01:13:26;4.73;61.05
72772;SHT30;60894;42.544;1.516;2023-04-16T01:15:53;4.56;61.32
72772;SHT30;60894;42.544;1.516;2023-04-16T01:18:21;4.52;61.70
72772;SHT30;60894;42.544;1.516;2023-04-16T01:20:50;4.49;62.70
72772;SHT30;60894;42.544;1.516;2023-04-16T01:23:17;4.43;62.29
72772;SHT30;60894;42.544;1.516;2023-04-16T01:25:45;4.42;61.49
72772;SHT30;60894;42.544;1.516;2023-04-16T01:28:12;4.47;61.60
72772;SHT30;60894;42.544;1.516;2023-04-16T01:30:39;4.37;62.70
72772;SHT30;60894;42.544;1.516;2023-04-16T01:33:06;4.50;62.71
72772;SHT30;60894;42.544;1.516;2023-04-16T01:35:33;4.54;62.72
72772;SHT30;60894;42.544;1.516;2023-04-16T01:38:01;4.50;63.09
72772;SHT30;60894;42.544;1.516;2023-04-16T01:40:29;4.60;63.17
72772;SHT30;60894;42.544;1.516;2023-04-16T01:42:56;4.64;62.18
72772;SHT30;60894;42.544;1.516;2023-04-16T01:45:23;4.75;62.89
72772;SHT30;60894;42.544;1.516;2023-04-16T01:47:51;4.84;62.79
72772;SHT30;60894;42.544;1.516;2023-04-16T01:50:18;4.84;62.93
72772;SHT30;60894;42.544;1.516;2023-04-16T01:52:45;4.91;61.52
72772;SHT30;60894;42.544;1.516;2023-04-16T01:55:14;4.87;62.75
72772;SHT30;60894;42.544;1.516;2023-04-16T01:57:41;4.71;62.59
72772;SHT30;60894;42.544;1.516;2023-04-16T02:00:08;4.73;63.52
72772;SHT30;60894;42.544;1.516;2023-04-16T02:02:35;4.83;64.17
72772;SHT30;60894;42.544;1.516;2023-04-16T02:05:03;4.85;63.24
72772;SHT30;60894;42.544;1.516;2023-04-16T02:07:29;4.91;63.90
72772;SHT30;60894;42.544;1.516;2023-04-16T02:09:57;4.99;63.68
72772;SHT30;60894;42.544;1.516;2023-04-16T02:12:25;4.94;64.29
72772;SHT30;60894;42.544;1.516;2023-04-16T02:14:52;4.74;64.68
72772;SHT30;60894;42.544;1.516;2023-04-16T02:17:19;4.60;64.30
72772;SHT30;60894;42.544;1.516;2023-04-16T02:19:46;4.54;64.43
72772;SHT30;60894;42.544;1.516;2023-04-16T02:22:13;4.46;65.40
72772;SHT30;60894;42.544;1.516;2023-04-16T02:24:40;4.49;66.31
72772;SHT30;60894;42.544;1.516;2023-04-16T02:27:07;4.33;66.86
72772;SHT30;60894;42.544;1.516;2023-04-16T02:29:35;4.37;66.97
72772;SHT30;60894;42.544;1.516;2023-04-16T02:32:02;4.46;67.33
72772;SHT30;60894;42.544;1.516;2023-04-16T02:34:29;4.42;66.16
72772;SHT30;60894;42.544;1.516;2023-04-16T02:36:58;4.37;66.26
72772;SHT30;60894;42.544;1.516;2023-04-16T02:39:25;4.44;66.07
72772;SHT30;60894;42.544;1.516;2023-04-16T02:41:51;4.49;67.07
72772;SHT30;60894;42.544;1.516;2023-04-16T02:44:18;4.47;68.17
72772;SHT30;60894;42.544;1.516;2023-04-16T02:46:47;4.56;66.97
72772;SHT30;60894;42.544;1.516;2023-04-16T02:49:14;4.58;65.69
72772;SHT30;60894;42.544;1.516;2023-04-16T02:51:40;4.67;66.36
72772;SHT30;60894;42.544;1.516;2023-04-16T02:54:07;4.54;67.20
72772;SHT30;60894;42.544;1.516;2023-04-16T02:56:34;4.61;66.96
72772;SHT30;60894;42.544;1.516;2023-04-16T02:59:01;4.64;64.81
72772;SHT30;60894;42.544;1.516;2023-04-16T03:01:28;4.54;64.96
72772;SHT30;60894;42.544;1.516;2023-04-16T03:03:56;4.57;65.75
72772;SHT30;60894;42.544;1.516;2023-04-16T03:06:23;4.46;66.84
72772;SHT30;60894;42.544;1.516;2023-04-16T03:08:50;4.44;67.22
72772;SHT30;60894;42.544;1.516;2023-04-16T03:11:17;4.63;68.31
72772;SHT30;60894;42.544;1.516;2023-04-16T03:13:44;4.71;66.45
72772;SHT30;60894;42.544;1.516;2023-04-16T03:16:11;4.71;67.71
72772;SHT30;60894;42.544;1.516;2023-04-16T03:18:38;4.57;66.81
72772;SHT30;60894;42.544;1.516;2023-04-16T03:21:07;4.58;63.88
72772;SHT30;60894;42.544;1.516;2023-04-16T03:23:33;4.54;63.96
72772;SHT30;60894;42.544;1.516;2023-04-16T03:26:01;4.61;64.71
72772;SHT30;60894;42.544;1.516;2023-04-16T03:28:28;4.65;64.18
72772;SHT30;60894;42.544;1.516;2023-04-16T03:30:55;4.56;63.44
72772;SHT30;60894;42.544;1.516;2023-04-16T03:33:22;4.67;63.44
72772;SHT30;60894;42.544;1.516;2023-04-16T03:35:54;4.54;63.76
72772;SHT30;60894;42.544;1.516;2023-04-16T03:38:23;4.52;63.04
72772;SHT30;60894;42.544;1.516;2023-04-16T03:40:50;4.58;62.48
72772;SHT30;60894;42.544;1.516;2023-04-16T03:43:17;4.70;63.95
72772;SHT30;60894;42.544;1.516;2023-04-16T03:45:44;4.81;63.22
72772;SHT30;60894;42.544;1.516;2023-04-16T03:48:11;4.84;66.50
72772;SHT30;60894;42.544;1.516;2023-04-16T03:50:38;5.02;65.40
72772;SHT30;60894;42.544;1.516;2023-04-16T03:53:05;5.09;66.04
72772;SHT30;60894;42.544;1.516;2023-04-16T03:55:34;5.02;66.74
72772;SHT30;60894;42.544;1.516;2023-04-16T03:58:01;4.99;66.50
72772;SHT30;60894;42.544;1.516;2023-04-16T04:00:29;5.01;66.50
72772;SHT30;60894;42.544;1.516;2023-04-16T04:02:56;5.02;66.15
72772;SHT30;60894;42.544;1.516;2023-04-16T04:05:23;5.01;66.65
72772;SHT30;60894;42.544;1.516;2023-04-16T04:07:50;5.05;66.46
72772;SHT30;60894;42.544;1.516;2023-04-16T04:10:17;5.05;65.49
72772;SHT30;60894;42.544;1.516;2023-04-16T04:12:45;5.02;64.82
72772;SHT30;60894;42.544;1.516;2023-04-16T04:15:12;4.89;64.25
72772;SHT30;60894;42.544;1.516;2023-04-16T04:17:39;4.80;65.16
72772;SHT30;60894;42.544;1.516;2023-04-16T04:20:06;4.80;65.09
72772;SHT30;60894;42.544;1.516;2023-04-16T04:22:33;4.78;65.50
72772;SHT30;60894;42.544;1.516;2023-04-16T04:25:00;4.71;66.91
72772;SHT30;60894;42.544;1.516;2023-04-16T04:27:27;4.83;65.82
72772;SHT30;60894;42.544;1.516;2023-04-16T04:29:56;4.64;64.58
72772;SHT30;60894;42.544;1.516;2023-04-16T04:32:23;4.61;62.32
72772;SHT30;60894;42.544;1.516;2023-04-16T04:34:50;4.50;64.10
72772;SHT30;60894;42.544;1.516;2023-04-16T04:37:17;4.52;60.62
72772;SHT30;60894;42.544;1.516;2023-04-16T04:39:43;4.75;57.64
72772;SHT30;60894;42.544;1.516;2023-04-16T04:42:11;4.81;60.64
72772;SHT30;60894;42.544;1.516;2023-04-16T04:44:38;4.73;64.07
72772;SHT30;60894;42.544;1.516;2023-04-16T04:47:06;4.65;64.45
72772;SHT30;60894;42.544;1.516;2023-04-16T04:49:33;4.53;62.54
72772;SHT30;60894;42.544;1.516;2023-04-16T04:52:00;4.47;63.09
72772;SHT30;60894;42.544;1.516;2023-04-16T04:54:27;4.57;61.18
72772;SHT30;60894;42.544;1.516;2023-04-16T04:56:54;4.47;62.46
72772;SHT30;60894;42.544;1.516;2023-04-16T04:59:21;4.44;62.05
72772;SHT30;60894;42.544;1.516;2023-04-16T05:01:48;4.60;58.22
72772;SHT30;60894;42.544;1.516;2023-04-16T05:04:17;4.54;62.64
72772;SHT30;60894;42.544;1.516;2023-04-16T05:06:44;4.42;60.41
72772;SHT30;60894;42.544;1.516;2023-04-16T05:09:11;4.44;61.48
72772;SHT30;60894;42.544;1.516;2023-04-16T05:11:39;4.60;59.59
72772;SHT30;60894;42.544;1.516;2023-04-16T05:14:06;4.61;59.65
72772;SHT30;60894;42.544;1.516;2023-04-16T05:16:35;4.75;56.96
72772;SHT30;60894;42.544;1.516;2023-04-16T05:19:02;4.89;55.87
72772;SHT30;60894;42.544;1.516;2023-04-16T05:21:31;4.94;55.59
72772;SHT30;60894;42.544;1.516;2023-04-16T05:23:58;5.01;55.50
72772;SHT30;60894;42.544;1.516;2023-04-16T05:26:25;5.07;54.41
72772;SHT30;60894;42.544;1.516;2023-04-16T05:28:51;5.05;55.36
72772;SHT30;60894;42.544;1.516;2023-04-16T05:31:18;5.15;53.90
72772;SHT30;60894;42.544;1.516;2023-04-16T05:33:45;5.12;54.75
72772;SHT30;60894;42.544;1.516;2023-04-16T05:36:12;5.15;54.03
72772;SHT30;60894;42.544;1.516;2023-04-16T05:38:41;5.08;57.78
72772;SHT30;60894;42.544;1.516;2023-04-16T05:41:07;5.01;57.18
72772;SHT30;60894;42.544;1.516;2023-04-16T05:43:35;4.85;58.11
72772;SHT30;60894;42.544;1.516;2023-04-16T05:46:01;4.75;58.77
72772;SHT30;60894;42.544;1.516;2023-04-16T05:48:28;4.57;59.14
72772;SHT30;60894;42.544;1.516;2023-04-16T05:50:55;4.49;59.09
72772;SHT30;60894;42.544;1.516;2023-04-16T05:53:22;4.42;59.91
72772;SHT30;60894;42.544;1.516;2023-04-16T05:55:51;4.42;60.26
72772;SHT30;60894;42.544;1.516;2023-04-16T05:58:17;4.57;58.51
72772;SHT30;60894;42.544;1.516;2023-04-16T06:00:44;4.49;59.24
72772;SHT30;60894;42.544;1.516;2023-04-16T06:03:11;4.40;59.40
72772;SHT30;60894;42.544;1.516;2023-04-16T06:05:38;4.40;60.01
72772;SHT30;60894;42.544;1.516;2023-04-16T06:08:05;4.37;59.65
72772;SHT30;60894;42.544;1.516;2023-04-16T06:10:32;4.40;59.27
72772;SHT30;60894;42.544;1.516;2023-04-16T06:13:00;4.42;58.86
72772;SHT30;60894;42.544;1.516;2023-04-16T06:15:28;4.37;59.07
72772;SHT30;60894;42.544;1.516;2023-04-16T06:17:55;4.32;59.59
72772;SHT30;60894;42.544;1.516;2023-04-16T06:20:21;4.34;60.51
72772;SHT30;60894;42.544;1.516;2023-04-16T06:22:48;4.32;61.58
72772;SHT30;60894;42.544;1.516;2023-04-16T06:25:15;4.26;60.46
72772;SHT30;60894;42.544;1.516;2023-04-16T06:27:42;4.37;60.20
72772;SHT30;60894;42.544;1.516;2023-04-16T06:30:12;4.37;60.49
72772;SHT30;60894;42.544;1.516;2023-04-16T06:32:40;4.44;60.42
72772;SHT30;60894;42.544;1.516;2023-04-16T06:35:08;4.46;59.23
72772;SHT30;60894;42.544;1.516;2023-04-16T06:37:35;4.60;58.27
72772;SHT30;60894;42.544;1.516;2023-04-16T06:40:02;4.63;61.33
72772;SHT30;60894;42.544;1.516;2023-04-16T06:42:29;4.61;60.64
72772;SHT30;60894;42.544;1.516;2023-04-16T06:44:56;4.58;59.92
72772;SHT30;60894;42.544;1.516;2023-04-16T06:47:24;4.60;58.47
72772;SHT30;60894;42.544;1.516;2023-04-16T06:49:51;4.67;56.40
72772;SHT30;60894;42.544;1.516;2023-04-16T06:52:18;4.84;53.99
72772;SHT30;60894;42.544;1.516;2023-04-16T06:54:46;4.99;52.19
72772;SHT30;60894;42.544;1.516;2023-04-16T06:57:13;5.19;50.98
72772;SHT30;60894;42.544;1.516;2023-04-16T06:59:40;5.31;49.60
72772;SHT30;60894;42.544;1.516;2023-04-16T07:02:08;5.46;48.24
72772;SHT30;60894;42.544;1.516;2023-04-16T07:04:37;5.63;48.40
72772;SHT30;60894;42.544;1.516;2023-04-16T07:07:04;5.73;46.60
72772;SHT30;60894;42.544;1.516;2023-04-16T07:09:31;5.81;47.76
72772;SHT30;60894;42.544;1.516;2023-04-16T07:11:58;5.87;47.17
72772;SHT30;60894;42.544;1.516;2023-04-16T07:14:25;6.00;51.44
72772;SHT30;60894;42.544;1.516;2023-04-16T07:16:52;5.98;51.62
72772;SHT30;60894;42.544;1.516;2023-04-16T07:19:19;6.01;51.33
72772;SHT30;60894;42.544;1.516;2023-04-16T07:21:47;6.08;50.48
72772;SHT30;60894;42.544;1.516;2023-04-16T07:24:14;6.17;50.26
72772;SHT30;60894;42.544;1.516;2023-04-16T07:26:41;6.21;49.62
72772;SHT30;60894;42.544;1.516;2023-04-16T07:29:08;6.35;48.20
72772;SHT30;60894;42.544;1.516;2023-04-16T07:31:35;6.50;48.38
72772;SHT30;60894;42.544;1.516;2023-04-16T07:34:02;6.62;47.85
72772;SHT30;60894;42.544;1.516;2023-04-16T07:36:29;6.73;46.57
72772;SHT30;60894;42.544;1.516;2023-04-16T07:38:57;6.97;49.38
72772;SHT30;60894;42.544;1.516;2023-04-16T07:41:24;7.14;43.34
72772;SHT30;60894;42.544;1.516;2023-04-16T07:43:51;7.23;43.60
72772;SHT30;60894;42.544;1.516;2023-04-16T07:46:18;7.31;43.36
72772;SHT30;60894;42.544;1.516;2023-04-16T07:48:45;7.38;42.58
72772;SHT30;60894;42.544;1.516;2023-04-16T07:51:12;7.34;40.61
72772;SHT30;60894;42.544;1.516;2023-04-16T07:53:39;7.43;40.80
72772;SHT30;60894;42.544;1.516;2023-04-16T07:56:08;7.51;40.85
72772;SHT30;60894;42.544;1.516;2023-04-16T07:58:35;7.65;40.89
72772;SHT30;60894;42.544;1.516;2023-04-16T08:01:03;7.91;40.97
72772;SHT30;60894;42.544;1.516;2023-04-16T08:03:30;7.99;41.04
72772;SHT30;60894;42.544;1.516;2023-04-16T08:05:58;8.03;38.59
72772;SHT30;60894;42.544;1.516;2023-04-16T08:08:25;8.10;38.96
72772;SHT30;60894;42.544;1.516;2023-04-16T08:10:52;8.28;38.07
72772;SHT30;60894;42.544;1.516;2023-04-16T08:13:25;8.46;37.81
72772;SHT30;60894;42.544;1.516;2023-04-16T08:15:52;8.51;36.14
72772;SHT30;60894;42.544;1.516;2023-04-16T08:18:19;8.65;34.43
72772;SHT30;60894;42.544;1.516;2023-04-16T08:20:46;8.77;34.39
72772;SHT30;60894;42.544;1.516;2023-04-16T08:23:12;8.80;34.27
72772;SHT30;60894;42.544;1.516;2023-04-16T08:25:40;8.95;34.30
72772;SHT30;60894;42.544;1.516;2023-04-16T08:28:07;8.89;33.85
72772;SHT30;60894;42.544;1.516;2023-04-16T08:30:38;8.94;33.30
72772;SHT30;60894;42.544;1.516;2023-04-16T08:33:05;9.07;33.07
72772;SHT30;60894;42.544;1.516;2023-04-16T08:35:34;9.28;32.70
72772;SHT30;60894;42.544;1.516;2023-04-16T08:38:02;9.38;31.70
72772;SHT30;60894;42.544;1.516;2023-04-16T08:40:30;9.53;31.57
72772;SHT30;60894;42.544;1.516;2023-04-16T08:42:58;9.63;31.32
72772;SHT30;60894;42.544;1.516;2023-04-16T08:45:27;9.77;30.97
72772;SHT30;60894;42.544;1.516;2023-04-16T08:47:56;9.84;29.93
72772;SHT30;60894;42.544;1.516;2023-04-16T08:50:24;9.87;30.41
72772;SHT30;60894;42.544;1.516;2023-04-16T08:52:58;10.00;30.06
72772;SHT30;60894;42.544;1.516;2023-04-16T08:55:34;9.90;29.55
72772;SHT30;60894;42.544;1.516;2023-04-16T08:58:08;10.10;29.75
72772;SHT30;60894;42.544;1.516;2023-04-16T09:00:36;10.27;29.62
72772;SHT30;60894;42.544;1.516;2023-04-16T09:03:05;10.37;28.63
72772;SHT30;60894;42.544;1.516;2023-04-16T09:05:32;10.31;28.04
72772;SHT30;60894;42.544;1.516;2023-04-16T09:07:59;10.30;28.08
72772;SHT30;60894;42.544;1.516;2023-04-16T09:10:28;10.49;29.48
72772;SHT30;60894;42.544;1.516;2023-04-16T09:12:56;10.59;29.46
72772;SHT30;60894;42.544;1.516;2023-04-16T09:15:36;10.71;28.44
72772;SHT30;60894;42.544;1.516;2023-04-16T09:18:05;10.76;28.22
72772;SHT30;60894;42.544;1.516;2023-04-16T09:20:32;10.68;28.62
72772;SHT30;60894;42.544;1.516;2023-04-16T09:22:59;10.73;28.33
72772;SHT30;60894;42.544;1.516;2023-04-16T09:25:26;10.68;28.52
72772;SHT30;60894;42.544;1.516;2023-04-16T09:27:53;10.83;27.83
72772;SHT30;60894;42.544;1.516;2023-04-16T09:30:24;10.83;28.49
72772;SHT30;60894;42.544;1.516;2023-04-16T09:32:58;11.00;28.20
72772;SHT30;60894;42.544;1.516;2023-04-16T09:35:45;10.93;27.86
72772;SHT30;60894;42.544;1.516;2023-04-16T09:38:12;10.97;28.70
72772;SHT30;60894;42.544;1.516;2023-04-16T09:40:39;11.09;28.37
72772;SHT30;60894;42.544;1.516;2023-04-16T09:43:10;10.86;28.25
72772;SHT30;60894;42.544;1.516;2023-04-16T09:45:47;11.26;28.86
72772;SHT30;60894;42.544;1.516;2023-04-16T09:48:14;11.33;28.23
72772;SHT30;60894;42.544;1.516;2023-04-16T09:50:50;11.16;28.37
72772;SHT30;60894;42.544;1.516;2023-04-16T09:53:23;11.20;27.73
72772;SHT30;60894;42.544;1.516;2023-04-16T09:55:50;11.40;27.53
72772;SHT30;60894;42.544;1.516;2023-04-16T09:58:18;11.50;27.20
72772;SHT30;60894;42.544;1.516;2023-04-16T10:00:45;11.84;27.62
72772;SHT30;60894;42.544;1.516;2023-04-16T10:03:12;12.04;27.15
72772;SHT30;60894;42.544;1.516;2023-04-16T10:05:40;11.95;26.73
72772;SHT30;60894;42.544;1.516;2023-04-16T10:08:12;11.91;27.24
72772;SHT30;60894;42.544;1.516;2023-04-16T10:10:39;12.09;27.13
72772;SHT30;60894;42.544;1.516;2023-04-16T10:13:07;12.30;26.20
72772;SHT30;60894;42.544;1.516;2023-04-16T10:15:35;12.11;26.95
72772;SHT30;60894;42.544;1.516;2023-04-16T10:18:02;11.94;27.28
72772;SHT30;60894;42.544;1.516;2023-04-16T10:20:30;12.01;26.83
72772;SHT30;60894;42.544;1.516;2023-04-16T10:22:57;11.78;27.28
72772;SHT30;60894;42.544;1.516;2023-04-16T10:25:27;12.05;28.12
72772;SHT30;60894;42.544;1.516;2023-04-16T10:27:55;12.28;27.02
72772;SHT30;60894;42.544;1.516;2023-04-16T10:30:22;12.25;26.68
72772;SHT30;60894;42.544;1.516;2023-04-16T10:32:50;12.26;26.62
72772;SHT30;60894;42.544;1.516;2023-04-16T10:35:18;12.52;27.61
72772;SHT30;60894;42.544;1.516;2023-04-16T10:37:45;12.59;27.62
72772;SHT30;60894;42.544;1.516;2023-04-16T10:40:23;12.49;27.82
72772;SHT30;60894;42.544;1.516;2023-04-16T10:42:55;12.56;27.91
72772;SHT30;60894;42.544;1.516;2023-04-16T10:45:29;12.64;27.69
72772;SHT30;60894;42.544;1.516;2023-04-16T10:47:56;12.59;28.06
72772;SHT30;60894;42.544;1.516;2023-04-16T10:50:23;12.56;28.95
72772;SHT30;60894;42.544;1.516;2023-04-16T10:53:17;12.84;27.91
72772;SHT30;60894;42.544;1.516;2023-04-16T10:55:58;13.08;27.95
72772;SHT30;60894;42.544;1.516;2023-04-16T10:58:36;12.86;28.48
72772;SHT30;60894;42.544;1.516;2023-04-16T11:01:06;12.70;29.22
72772;SHT30;60894;42.544;1.516;2023-04-16T11:03:33;13.29;28.59
72772;SHT30;60894;42.544;1.516;2023-04-16T11:06:10;13.76;27.55
72772;SHT30;60894;42.544;1.516;2023-04-16T11:08:38;13.31;27.56
72772;SHT30;60894;42.544;1.516;2023-04-16T11:11:06;13.45;28.39
72772;SHT30;60894;42.544;1.516;2023-04-16T11:13:35;13.69;27.16
72772;SHT30;60894;42.544;1.516;2023-04-16T11:16:03;13.63;28.06
72772;SHT30;60894;42.544;1.516;2023-04-16T11:18:31;13.75;28.29
72772;SHT30;60894;42.544;1.516;2023-04-16T11:20:58;13.97;28.52
72772;SHT30;60894;42.544;1.516;2023-04-16T11:23:25;14.33;27.48
72772;SHT30;60894;42.544;1.516;2023-04-16T11:25:52;14.18;27.82
72772;SHT30;60894;42.544;1.516;2023-04-16T11:28:31;13.95;28.14
72772;SHT30;60894;42.544;1.516;2023-04-16T11:30:58;14.24;27.89
72772;SHT30;60894;42.544;1.516;2023-04-16T11:33:36;14.63;27.35
72772;SHT30;60894;42.544;1.516;2023-04-16T11:36:04;14.89;27.08
72772;SHT30;60894;42.544;1.516;2023-04-16T11:38:35;15.10;26.49
72772;SHT30;60894;42.544;1.516;2023-04-16T11:41:03;15.00;26.86
72772;SHT30;60894;42.544;1.516;2023-04-16T11:43:30;14.93;27.22
72772;SHT30;60894;42.544;1.516;2023-04-16T11:45:59;14.14;28.11
72772;SHT30;60894;42.544;1.516;2023-04-16T11:48:46;14.10;28.06
72772;SHT30;60894;42.544;1.516;2023-04-16T11:51:13;14.71;27.84
72772;SHT30;60894;42.544;1.516;2023-04-16T11:53:50;14.98;27.22
72772;SHT30;60894;42.544;1.516;2023-04-16T11:56:27;14.33;27.49
72772;SHT30;60894;42.544;1.516;2023-04-16T11:59:10;14.47;27.73
72772;SHT30;60894;42.544;1.516;2023-04-16T12:01:38;14.75;27.25
72772;SHT30;60894;42.544;1.516;2023-04-16T12:04:08;14.88;27.32
72772;SHT30;60894;42.544;1.516;2023-04-16T12:06:35;14.82;27.04
72772;SHT30;60894;42.544;1.516;2023-04-16T12:09:22;14.71;27.33
72772;SHT30;60894;42.544;1.516;2023-04-16T12:11:49;14.42;27.86
72772;SHT30;60894;42.544;1.516;2023-04-16T12:14:16;14.67;27.16
72772;SHT30;60894;42.544;1.516;2023-04-16T12:16:43;14.58;27.14
72772;SHT30;60894;42.544;1.516;2023-04-16T12:19:12;14.55;27.06
72772;SHT30;60894;42.544;1.516;2023-04-16T12:21:40;15.12;26.58
72772;SHT30;60894;42.544;1.516;2023-04-16T12:24:09;14.86;27.28
72772;SHT30;60894;42.544;1.516;2023-04-16T12:26:42;14.99;27.07
72772;SHT30;60894;42.544;1.516;2023-04-16T12:29:19;14.36;28.21
72772;SHT30;60894;42.544;1.516;2023-04-16T12:31:47;14.60;27.80
72772;SHT30;60894;42.544;1.516;2023-04-16T12:34:16;14.58;27.29
72772;SHT30;60894;42.544;1.516;2023-04-16T12:36:44;14.93;27.66
72772;SHT30;60894;42.544;1.516;2023-04-16T12:39:12;14.89;26.88
72772;SHT30;60894;42.544;1.516;2023-04-16T12:41:40;15.15;26.59
72772;SHT30;60894;42.544;1.516;2023-04-16T12:44:08;15.03;26.91
72772;SHT30;60894;42.544;1.516;2023-04-16T12:46:38;14.95;26.88
72772;SHT30;60894;42.544;1.516;2023-04-16T12:49:05;15.29;26.03
72772;SHT30;60894;42.544;1.516;2023-04-16T12:51:34;14.99;26.80
72772;SHT30;60894;42.544;1.516;2023-04-16T12:54:02;15.49;26.59
72772;SHT30;60894;42.544;1.516;2023-04-16T12:56:29;16.02;25.60
72772;SHT30;60894;42.544;1.516;2023-04-16T12:58:56;16.01;26.01
72772;SHT30;60894;42.544;1.516;2023-04-16T13:01:23;15.50;26.30
72772;SHT30;60894;42.544;1.516;2023-04-16T13:03:50;15.50;26.44
72772;SHT30;60894;42.544;1.516;2023-04-16T13:06:17;15.80;25.37
72772;SHT30;60894;42.544;1.516;2023-04-16T13:08:46;15.93;25.36
72772;SHT30;60894;42.544;1.516;2023-04-16T13:11:12;15.19;25.48
72772;SHT30;60894;42.544;1.516;2023-04-16T13:13:40;15.22;26.34
72772;SHT30;60894;42.544;1.516;2023-04-16T13:16:07;15.16;26.50
72772;SHT30;60894;42.544;1.516;2023-04-16T13:18:34;15.80;25.83
72772;SHT30;60894;42.544;1.516;2023-04-16T13:21:02;15.33;25.75
72772;SHT30;60894;42.544;1.516;2023-04-16T13:23:29;15.09;26.39
72772;SHT30;60894;42.544;1.516;2023-04-16T13:25:57;15.39;26.27
72772;SHT30;60894;42.544;1.516;2023-04-16T13:28:24;15.67;25.69
72772;SHT30;60894;42.544;1.516;2023-04-16T13:30:51;15.32;26.39
72772;SHT30;60894;42.544;1.516;2023-04-16T13:33:18;15.18;26.88
72772;SHT30;60894;42.544;1.516;2023-04-16T13:35:46;14.88;27.13
72772;SHT30;60894;42.544;1.516;2023-04-16T13:38:13;14.69;27.54
72772;SHT30;60894;42.544;1.516;2023-04-16T13:40:40;15.10;27.43
72772;SHT30;60894;42.544;1.516;2023-04-16T13:43:08;15.00;26.87
72772;SHT30;60894;42.544;1.516;2023-04-16T13:45:36;15.26;27.25
72772;SHT30;60894;42.544;1.516;2023-04-16T13:48:04;15.15;27.31
72772;SHT30;60894;42.544;1.516;2023-04-16T13:50:31;15.64;26.60
72772;SHT30;60894;42.544;1.516;2023-04-16T13:52:58;15.76;26.30
72772;SHT30;60894;42.544;1.516;2023-04-16T13:55:25;15.61;26.62
72772;SHT30;60894;42.544;1.516;2023-04-16T13:57:52;15.49;26.70
72772;SHT30;60894;42.544;1.516;2023-04-16T14:00:24;15.93;26.80
72772;SHT30;60894;42.544;1.516;2023-04-16T14:02:51;15.53;27.47
72772;SHT30;60894;42.544;1.516;2023-04-16T14:05:18;15.91;27.12
72772;SHT30;60894;42.544;1.516;2023-04-16T14:07:47;16.32;26.83
72772;SHT30;60894;42.544;1.516;2023-04-16T14:10:14;16.73;26.21
72772;SHT30;60894;42.544;1.516;2023-04-16T14:12:42;16.70;25.71
72772;SHT30;60894;42.544;1.516;2023-04-16T14:15:09;16.08;26.04
72772;SHT30;60894;42.544;1.516;2023-04-16T14:17:40;16.62;25.68
72772;SHT30;60894;42.544;1.516;2023-04-16T14:20:09;16.60;25.88
72772;SHT30;60894;42.544;1.516;2023-04-16T14:22:37;16.99;25.62
72772;SHT30;60894;42.544;1.516;2023-04-16T14:25:04;17.06;24.86
72772;SHT30;60894;42.544;1.516;2023-04-16T14:27:32;16.93;25.61
72772;SHT30;60894;42.544;1.516;2023-04-16T14:29:58;16.79;25.93
72772;SHT30;60894;42.544;1.516;2023-04-16T14:32:26;17.58;25.39
72772;SHT30;60894;42.544;1.516;2023-04-16T14:34:54;17.17;26.16
72772;SHT30;60894;42.544;1.516;2023-04-16T14:37:21;17.35;24.56
72772;SHT30;60894;42.544;1.516;2023-04-16T14:39:48;17.27;25.33
72772;SHT30;60894;42.544;1.516;2023-04-16T14:42:15;17.04;25.93
72772;SHT30;60894;42.544;1.516;2023-04-16T14:44:42;17.16;25.35
72772;SHT30;60894;42.544;1.516;2023-04-16T14:47:09;16.76;25.64
72772;SHT30;60894;42.544;1.516;2023-04-16T14:49:36;16.81;25.93
72772;SHT30;60894;42.544;1.516;2023-04-16T14:52:04;16.53;26.08
72772;SHT30;60894;42.544;1.516;2023-04-16T14:54:31;16.72;26.17
72772;SHT30;60894;42.544;1.516;2023-04-16T14:56:58;16.81;25.82
72772;SHT30;60894;42.544;1.516;2023-04-16T14:59:26;16.59;26.13
72772;SHT30;60894;42.544;1.516;2023-04-16T15:01:54;16.73;26.25
72772;SHT30;60894;42.544;1.516;2023-04-16T15:04:22;16.75;26.22
72772;SHT30;60894;42.544;1.516;2023-04-16T15:06:52;16.30;26.44
72772;SHT30;60894;42.544;1.516;2023-04-16T15:09:24;16.19;27.37
72772;SHT30;60894;42.544;1.516;2023-04-16T15:11:52;16.41;27.32
72772;SHT30;60894;42.544;1.516;2023-04-16T15:14:19;16.96;26.05
72772;SHT30;60894;42.544;1.516;2023-04-16T15:16:46;17.16;26.30
72772;SHT30;60894;42.544;1.516;2023-04-16T15:19:13;16.94;26.40
72772;SHT30;60894;42.544;1.516;2023-04-16T15:21:40;17.04;26.35
72772;SHT30;60894;42.544;1.516;2023-04-16T15:24:07;16.24;26.30
72772;SHT30;60894;42.544;1.516;2023-04-16T15:26:38;16.60;26.71
72772;SHT30;60894;42.544;1.516;2023-04-16T15:29:05;17.17;25.32
72772;SHT30;60894;42.544;1.516;2023-04-16T15:31:32;17.28;25.10
72772;SHT30;60894;42.544;1.516;2023-04-16T15:33:58;17.18;25.59
72772;SHT30;60894;42.544;1.516;2023-04-16T15:36:25;17.82;24.86
72772;SHT30;60894;42.544;1.516;2023-04-16T15:38:52;17.32;24.77
72772;SHT30;60894;42.544;1.516;2023-04-16T15:41:19;16.89;25.77
72772;SHT30;60894;42.544;1.516;2023-04-16T15:43:48;17.35;25.27
72772;SHT30;60894;42.544;1.516;2023-04-16T15:46:15;17.65;24.92